Time;durP1;ratioP1;P1;durP2;ratioP2;P2;SDS_P1;SDS_P2;PMS_P1;PMS_P2;Temp;Humidity;BMP_temperature;BMP_pressure;BME280_temperature;BME280_humidity;BME280_pressure;Samples;Min_cycle;Max_cycle;Signal;HPM_P1;HPM_P2
2023/05/18 00:00:30;;;;;;;5.45;2.95;;;12.30;99.90;;;;;;5048892;28;20235;-72
2023/05/18 00:02:58;;;;;;;2.80;2.50;;;12.30;99.90;;;;;;5048244;28;20637;-72
2023/05/18 00:05:26;;;;;;;3.25;2.72;;;12.30;99.90;;;;;;5049039;28;20215;-71
2023/05/18 00:07:53;;;;;;;4.28;3.03;;;12.30;99.90;;;;;;5049585;28;20206;-73
2023/05/18 00:10:20;;;;;;;3.92;2.78;;;12.20;99.90;;;;;;5048692;28;20277;-72
2023/05/18 00:12:47;;;;;;;5.32;3.53;;;12.30;99.90;;;;;;5048673;28;20203;-71
2023/05/18 00:15:13;;;;;;;5.47;3.22;;;12.20;99.90;;;;;;5048479;28;20435;-71
2023/05/18 00:17:41;;;;;;;3.22;2.72;;;12.20;99.90;;;;;;5050240;28;20242;-72
2023/05/18 00:20:10;;;;;;;4.53;2.70;;;12.20;99.90;;;;;;5049960;28;20206;-72
2023/05/18 00:22:38;;;;;;;3.70;3.25;;;12.10;99.90;;;;;;5046979;28;20203;-72
2023/05/18 00:25:05;;;;;;;4.57;2.83;;;12.20;99.90;;;;;;5050910;28;20203;-72
2023/05/18 00:27:32;;;;;;;5.28;3.03;;;12.20;99.90;;;;;;5044215;28;20237;-72
2023/05/18 00:29:59;;;;;;;4.28;2.92;;;12.20;99.90;;;;;;5050610;28;20705;-72
2023/05/18 00:32:26;;;;;;;6.47;2.50;;;12.20;99.90;;;;;;5046499;28;20329;-72
2023/05/18 00:34:53;;;;;;;7.97;3.38;;;12.20;99.90;;;;;;5049336;28;20256;-72
2023/05/18 00:37:21;;;;;;;3.95;3.28;;;12.20;99.90;;;;;;5053765;28;20254;-72
2023/05/18 00:39:48;;;;;;;4.55;2.45;;;12.30;99.90;;;;;;5051115;28;20238;-71
2023/05/18 00:42:15;;;;;;;3.53;2.85;;;12.30;99.90;;;;;;5036085;28;20241;-71
2023/05/18 00:44:41;;;;;;;4.22;2.55;;;12.30;99.90;;;;;;5054100;28;20281;-72
2023/05/18 00:47:08;;;;;;;3.45;2.53;;;12.30;99.90;;;;;;5051990;28;20288;-72
2023/05/18 00:49:35;;;;;;;4.03;3.03;;;12.30;99.90;;;;;;5052453;28;20238;-72
2023/05/18 00:52:03;;;;;;;4.03;2.70;;;12.30;99.90;;;;;;5053467;28;20276;-72
2023/05/18 00:54:33;;;;;;;5.03;2.60;;;12.20;99.90;;;;;;5053154;28;20646;-72
2023/05/18 00:57:01;;;;;;;3.88;2.50;;;12.30;99.90;;;;;;5051056;28;20211;-71
2023/05/18 00:59:28;;;;;;;4.43;3.28;;;12.30;99.90;;;;;;5051422;28;20206;-70
2023/05/18 01:01:56;;;;;;;2.88;2.65;;;12.40;99.90;;;;;;5051589;28;20246;-70
2023/05/18 01:04:23;;;;;;;4.85;2.33;;;12.30;99.90;;;;;;5051008;28;20690;-70
2023/05/18 01:06:55;;;;;;;2.97;2.08;;;12.30;99.90;;;;;;5052855;28;20207;-70
2023/05/18 01:09:23;;;;;;;4.80;2.80;;;12.20;99.90;;;;;;5050523;28;20203;-70
2023/05/18 01:11:59;;;;;;;3.38;2.80;;;12.20;99.90;;;;;;5052552;28;20234;-70
2023/05/18 01:14:31;;;;;;;4.38;2.65;;;12.20;99.90;;;;;;5051970;28;20211;-70
2023/05/18 01:17:09;;;;;;;3.20;2.53;;;12.20;99.90;;;;;;5050306;28;20242;-70
2023/05/18 01:20:05;;;;;;;4.07;2.40;;;12.20;99.90;;;;;;5052264;28;20371;-70
2023/05/18 01:22:44;;;;;;;3.63;3.25;;;12.20;99.90;;;;;;5030010;28;20237;-70
2023/05/18 01:25:18;;;;;;;6.00;2.72;;;12.20;99.90;;;;;;5051524;28;20206;-70
2023/05/18 01:27:48;;;;;;;4.95;3.03;;;12.20;99.90;;;;;;5051016;28;20214;-70
2023/05/18 01:30:16;;;;;;;3.15;2.85;;;12.20;99.90;;;;;;5052524;28;20709;-71
2023/05/18 01:32:46;;;;;;;2.70;2.47;;;12.20;99.90;;;;;;5049669;28;20321;-70
2023/05/18 01:35:13;;;;;;;3.30;2.47;;;12.30;99.90;;;;;;5051610;28;20660;-69
2023/05/18 01:37:40;;;;;;;6.82;3.53;;;12.30;99.90;;;;;;5052263;28;20207;-69
2023/05/18 01:40:09;;;;;;;2.80;2.55;;;12.20;99.90;;;;;;5052172;28;20239;-70
2023/05/18 01:42:43;;;;;;;3.90;2.67;;;12.30;99.90;;;;;;5051571;28;20215;-69
2023/05/18 01:45:19;;;;;;;3.80;3.05;;;12.30;99.90;;;;;;5051262;28;20287;-69
2023/05/18 01:47:47;;;;;;;7.13;2.90;;;12.30;99.90;;;;;;5052615;28;20632;-69
2023/05/18 01:50:17;;;;;;;3.63;3.15;;;12.30;99.90;;;;;;5049630;28;20211;-69
2023/05/18 01:52:48;;;;;;;5.22;3.55;;;12.40;99.90;;;;;;5051470;28;20277;-69
2023/05/18 01:55:17;;;;;;;3.47;3.17;;;12.30;99.90;;;;;;5048372;28;20705;-68
2023/05/18 01:57:46;;;;;;;4.03;2.33;;;12.50;99.90;;;;;;5046208;28;20242;-68
2023/05/18 02:00:16;;;;;;;4.93;2.70;;;12.50;99.90;;;;;;5048077;28;20246;-68
2023/05/18 02:02:43;;;;;;;3.60;2.75;;;12.40;99.90;;;;;;5032779;28;20242;-69
2023/05/18 02:05:11;;;;;;;5.55;3.03;;;12.30;99.90;;;;;;5044599;28;20630;-69
2023/05/18 02:07:38;;;;;;;5.95;2.72;;;12.40;99.90;;;;;;5049040;28;20209;-69
2023/05/18 02:10:06;;;;;;;4.35;3.22;;;12.40;99.90;;;;;;5050970;28;20206;-69
2023/05/18 02:12:33;;;;;;;4.57;2.55;;;12.30;99.90;;;;;;5051567;28;20277;-69
2023/05/18 02:15:04;;;;;;;4.07;3.28;;;12.30;99.90;;;;;;5052865;28;20239;-70
2023/05/18 02:17:32;;;;;;;3.45;3.13;;;12.40;99.90;;;;;;5049301;28;20206;-69
2023/05/18 02:20:00;;;;;;;5.30;3.22;;;12.50;99.90;;;;;;5052639;28;20211;-70
2023/05/18 02:22:27;;;;;;;5.43;3.38;;;12.50;99.90;;;;;;5049364;28;20215;-70
2023/05/18 02:24:53;;;;;;;3.72;3.25;;;12.40;99.90;;;;;;5051860;28;20242;-70
2023/05/18 02:27:20;;;;;;;4.22;2.83;;;12.30;99.90;;;;;;5049654;28;20618;-69
2023/05/18 02:29:47;;;;;;;3.97;3.17;;;12.30;99.90;;;;;;5051050;28;20238;-70
2023/05/18 02:32:14;;;;;;;5.18;3.38;;;12.40;99.90;;;;;;5050815;28;20277;-70
2023/05/18 02:34:45;;;;;;;3.58;3.13;;;12.30;99.90;;;;;;5052378;28;20257;-70
2023/05/18 02:37:12;;;;;;;3.42;3.13;;;12.20;99.90;;;;;;5048893;28;20207;-70
2023/05/18 02:39:39;;;;;;;6.68;3.38;;;12.10;99.90;;;;;;5049595;28;20199;-70
2023/05/18 02:42:07;;;;;;;4.05;2.83;;;12.10;99.90;;;;;;5051177;28;20210;-69
2023/05/18 02:44:34;;;;;;;4.60;3.30;;;12.20;99.90;;;;;;5051841;28;20237;-69
2023/05/18 02:47:01;;;;;;;5.03;3.95;;;12.10;99.90;;;;;;5048985;28;20210;-69
2023/05/18 02:49:28;;;;;;;4.10;3.30;;;12.10;99.90;;;;;;5050917;28;20238;-70
2023/05/18 02:51:56;;;;;;;3.90;3.55;;;12.10;99.90;;;;;;5049631;28;20222;-70
2023/05/18 02:54:23;;;;;;;4.15;2.75;;;12.10;99.90;;;;;;5050676;28;20630;-69
2023/05/18 02:56:50;;;;;;;4.47;3.03;;;12.00;99.90;;;;;;5049644;28;20202;-69
2023/05/18 02:59:17;;;;;;;6.07;4.38;;;12.00;99.90;;;;;;5049967;28;20632;-69
2023/05/18 03:01:44;;;;;;;5.70;2.88;;;11.90;99.90;;;;;;5050602;28;20265;-69
2023/05/18 03:04:12;;;;;;;6.55;2.95;;;11.90;99.90;;;;;;5049460;28;20303;-68
2023/05/18 03:06:39;;;;;;;3.13;2.65;;;11.80;99.90;;;;;;5047348;28;20202;-68
2023/05/18 03:09:08;;;;;;;3.90;2.75;;;11.70;99.90;;;;;;5050079;28;20243;-68
2023/05/18 03:11:35;;;;;;;4.70;3.90;;;11.70;99.90;;;;;;5050353;28;20740;-68
2023/05/18 03:14:02;;;;;;;4.75;3.45;;;11.70;99.90;;;;;;5050206;28;20238;-68
2023/05/18 03:16:29;;;;;;;3.65;3.05;;;11.70;99.90;;;;;;5047839;28;20238;-68
2023/05/18 03:18:57;;;;;;;4.50;3.70;;;11.80;99.90;;;;;;5050226;28;20298;-68
2023/05/18 03:21:24;;;;;;;4.95;2.72;;;11.80;99.90;;;;;;5050536;28;20211;-69
2023/05/18 03:23:51;;;;;;;5.15;2.75;;;11.80;99.90;;;;;;5052061;28;20301;-68
2023/05/18 03:26:24;;;;;;;4.68;3.33;;;11.80;99.90;;;;;;5049007;28;20207;-68
2023/05/18 03:28:51;;;;;;;5.45;2.75;;;11.80;99.90;;;;;;5050135;28;20234;-68
2023/05/18 03:31:18;;;;;;;7.95;2.90;;;11.70;99.90;;;;;;5049318;28;20221;-68
2023/05/18 03:33:45;;;;;;;4.32;2.70;;;11.70;99.90;;;;;;5047752;28;20234;-68
2023/05/18 03:36:12;;;;;;;3.65;3.30;;;11.70;99.90;;;;;;5049931;28;20242;-68
2023/05/18 03:38:40;;;;;;;6.97;3.35;;;11.70;99.90;;;;;;5050938;28;20697;-68
2023/05/18 03:41:07;;;;;;;3.90;3.53;;;11.80;99.90;;;;;;5049293;28;20663;-69
2023/05/18 03:43:35;;;;;;;3.10;2.80;;;11.80;99.90;;;;;;5049289;28;20239;-70
2023/05/18 03:46:02;;;;;;;3.65;2.67;;;11.80;99.90;;;;;;5048152;28;20211;-70
2023/05/18 03:48:29;;;;;;;5.07;3.58;;;11.80;99.90;;;;;;5050753;28;20203;-69
2023/05/18 03:50:56;;;;;;;3.80;2.88;;;11.90;99.90;;;;;;5048988;28;20210;-69
2023/05/18 03:53:23;;;;;;;6.68;3.35;;;11.90;99.90;;;;;;5048141;28;20610;-70
2023/05/18 03:55:50;;;;;;;5.90;2.78;;;11.90;99.90;;;;;;5048849;28;20290;-70
2023/05/18 03:58:18;;;;;;;3.50;3.20;;;11.80;99.90;;;;;;5048503;28;20210;-70
2023/05/18 04:00:48;;;;;;;2.75;2.55;;;11.70;99.90;;;;;;5046867;28;20207;-70
2023/05/18 04:03:15;;;;;;;4.18;2.65;;;11.70;99.90;;;;;;5048869;28;20242;-70
2023/05/18 04:05:42;;;;;;;3.53;2.80;;;11.80;99.90;;;;;;5037445;28;20674;-70
2023/05/18 04:08:13;;;;;;;5.53;3.85;;;11.80;99.90;;;;;;5048380;28;20213;-69
2023/05/18 04:10:41;;;;;;;4.45;3.15;;;11.80;99.90;;;;;;5049301;28;20253;-70
2023/05/18 04:13:08;;;;;;;5.30;3.30;;;11.90;99.90;;;;;;5048178;28;20267;-70
2023/05/18 04:15:35;;;;;;;5.38;3.67;;;12.00;99.90;;;;;;5047121;28;20307;-70
2023/05/18 04:18:03;;;;;;;3.75;3.10;;;12.10;99.90;;;;;;5050212;28;20213;-70
2023/05/18 04:20:30;;;;;;;5.63;3.65;;;12.00;99.90;;;;;;5049418;28;20238;-70
2023/05/18 04:22:57;;;;;;;3.83;3.38;;;11.90;99.90;;;;;;5048956;28;20243;-70
2023/05/18 04:25:26;;;;;;;4.95;2.95;;;11.90;99.90;;;;;;5048482;28;20199;-70
2023/05/18 04:27:54;;;;;;;3.83;2.92;;;11.90;99.90;;;;;;5048359;28;20561;-70
2023/05/18 04:30:22;;;;;;;5.13;3.58;;;11.90;99.90;;;;;;5050456;28;20207;-70
2023/05/18 04:32:49;;;;;;;4.05;2.72;;;11.80;99.90;;;;;;5049396;28;20235;-70
2023/05/18 04:35:17;;;;;;;4.00;2.58;;;11.80;99.90;;;;;;5046231;28;20290;-70
2023/05/18 04:37:45;;;;;;;6.13;2.70;;;11.70;99.90;;;;;;5047405;28;20218;-70
2023/05/18 04:40:12;;;;;;;8.48;3.60;;;11.70;99.90;;;;;;5049465;28;20206;-70
2023/05/18 04:42:43;;;;;;;5.15;2.92;;;11.80;99.90;;;;;;5047640;28;20202;-69
2023/05/18 04:45:15;;;;;;;6.10;4.20;;;11.80;99.90;;;;;;5048785;28;20207;-69
2023/05/18 04:47:45;;;;;;;3.97;3.50;;;11.80;99.90;;;;;;5048482;28;20265;-69
2023/05/18 04:50:13;;;;;;;4.40;3.38;;;11.70;99.90;;;;;;5050103;28;20208;-69
2023/05/18 04:52:47;;;;;;;4.20;2.78;;;11.60;99.90;;;;;;5048349;28;20718;-69
2023/05/18 04:55:15;;;;;;;6.78;3.10;;;11.60;99.90;;;;;;5048141;28;20198;-69
2023/05/18 04:57:43;;;;;;;6.32;2.95;;;11.60;99.90;;;;;;5045646;28;20631;-69
2023/05/18 05:00:11;;;;;;;6.10;3.00;;;11.60;99.90;;;;;;5047813;28;20206;-69
2023/05/18 05:02:39;;;;;;;6.88;3.40;;;11.70;99.90;;;;;;5047989;28;20210;-69
2023/05/18 05:05:07;;;;;;;4.32;3.20;;;11.60;99.90;;;;;;5046946;28;20199;-69
2023/05/18 05:07:35;;;;;;;4.10;3.70;;;11.60;99.90;;;;;;5045691;28;20206;-69
2023/05/18 05:10:03;;;;;;;7.53;3.60;;;11.70;99.90;;;;;;5047607;28;20305;-68
2023/05/18 05:12:30;;;;;;;3.67;3.38;;;11.70;99.90;;;;;;5047350;28;20223;-68
2023/05/18 05:14:57;;;;;;;7.38;3.40;;;11.70;99.90;;;;;;5046810;28;20756;-70
2023/05/18 05:17:25;;;;;;;3.80;2.90;;;11.70;99.90;;;;;;5048564;28;20231;-69
2023/05/18 05:19:52;;;;;;;5.72;2.90;;;11.70;99.90;;;;;;5039496;28;20295;-71
2023/05/18 05:22:19;;;;;;;3.60;3.30;;;11.70;99.90;;;;;;5051479;28;20606;-71
2023/05/18 05:24:46;;;;;;;4.53;3.20;;;11.80;99.90;;;;;;5049205;28;20264;-71
2023/05/18 05:27:14;;;;;;;5.97;3.40;;;11.70;99.90;;;;;;5045394;28;20713;-71
2023/05/18 05:29:41;;;;;;;4.65;2.55;;;11.70;99.90;;;;;;5047943;28;20199;-72
2023/05/18 05:32:09;;;;;;;3.85;3.15;;;11.70;99.90;;;;;;5054359;28;20234;-70
2023/05/18 05:34:36;;;;;;;5.20;3.53;;;11.70;99.90;;;;;;5052855;28;20294;-70
2023/05/18 05:37:03;;;;;;;5.28;3.30;;;11.80;99.90;;;;;;5053480;28;20206;-73
2023/05/18 05:39:30;;;;;;;14.40;4.25;;;11.90;99.90;;;;;;5053279;28;20230;-71
2023/05/18 05:41:57;;;;;;;3.63;3.00;;;12.00;99.90;;;;;;5051055;28;20207;-69
2023/05/18 05:44:25;;;;;;;6.97;3.33;;;12.00;99.90;;;;;;5055244;28;20235;-72
2023/05/18 05:46:52;;;;;;;4.43;2.92;;;11.90;99.90;;;;;;5048567;28;20214;-69
2023/05/18 05:49:19;;;;;;;4.85;2.47;;;11.80;99.90;;;;;;5050360;28;20238;-69
2023/05/18 05:51:46;;;;;;;6.10;2.85;;;11.80;99.90;;;;;;5050485;28;20253;-69
2023/05/18 05:54:13;;;;;;;4.95;2.95;;;11.90;99.90;;;;;;5042530;28;20239;-69
2023/05/18 05:56:40;;;;;;;5.65;3.10;;;12.00;99.90;;;;;;5050075;28;20663;-69
2023/05/18 05:59:07;;;;;;;5.07;3.15;;;12.00;99.90;;;;;;5047588;28;20246;-70
2023/05/18 06:01:35;;;;;;;3.88;2.78;;;12.00;99.90;;;;;;5048083;28;20242;-69
2023/05/18 06:04:05;;;;;;;5.45;3.13;;;12.10;99.90;;;;;;5050644;28;20246;-69
2023/05/18 06:06:32;;;;;;;8.20;2.83;;;12.30;99.90;;;;;;5051283;28;20241;-70
2023/05/18 06:08:59;;;;;;;4.32;3.25;;;12.30;99.90;;;;;;5053011;28;20238;-70
2023/05/18 06:11:26;;;;;;;3.80;2.40;;;12.40;99.90;;;;;;5052558;28;20202;-70
2023/05/18 06:13:53;;;;;;;5.63;3.30;;;12.30;99.90;;;;;;5052975;28;20877;-70
2023/05/18 06:16:19;;;;;;;5.32;3.25;;;12.20;99.90;;;;;;5051829;28;20257;-69
2023/05/18 06:18:48;;;;;;;3.42;2.50;;;12.20;99.90;;;;;;5049964;28;20673;-70
2023/05/18 06:21:15;;;;;;;5.07;2.95;;;12.20;99.90;;;;;;5051947;28;20210;-70
2023/05/18 06:23:43;;;;;;;2.97;2.67;;;12.20;99.90;;;;;;5052294;28;20677;-69
2023/05/18 06:26:10;;;;;;;5.15;2.88;;;12.20;99.90;;;;;;5052649;28;20199;-69
2023/05/18 06:28:37;;;;;;;3.85;2.65;;;12.40;99.90;;;;;;5051817;28;20210;-70
2023/05/18 06:31:05;;;;;;;4.10;2.75;;;12.50;99.90;;;;;;5051737;28;20235;-70
2023/05/18 06:33:32;;;;;;;5.55;3.28;;;12.60;99.90;;;;;;5047733;28;20266;-69
2023/05/18 06:36:00;;;;;;;5.70;2.60;;;12.50;99.90;;;;;;5052394;28;20288;-70
2023/05/18 06:38:27;;;;;;;6.18;3.63;;;12.30;99.90;;;;;;5051552;28;20253;-69
2023/05/18 06:40:54;;;;;;;3.30;2.90;;;12.30;99.90;;;;;;5052183;28;20235;-69
2023/05/18 06:43:20;;;;;;;4.63;3.22;;;12.40;99.90;;;;;;5052631;28;20239;-69
2023/05/18 06:45:47;;;;;;;4.35;2.80;;;12.30;99.90;;;;;;5051868;28;20686;-69
2023/05/18 06:48:14;;;;;;;6.22;2.63;;;12.40;99.90;;;;;;5050042;28;20242;-70
2023/05/18 06:50:41;;;;;;;3.80;3.10;;;12.40;99.90;;;;;;5051442;28;20265;-69
2023/05/18 06:53:09;;;;;;;5.22;3.38;;;12.30;99.90;;;;;;5052015;28;20274;-69
2023/05/18 06:55:36;;;;;;;7.03;3.83;;;12.40;99.90;;;;;;5051127;28;20225;-69
2023/05/18 06:58:03;;;;;;;2.85;2.53;;;12.50;99.90;;;;;;5052084;28;20702;-70
2023/05/18 07:00:30;;;;;;;6.10;3.15;;;12.50;99.90;;;;;;5051795;28;20234;-69
2023/05/18 07:02:57;;;;;;;4.60;3.60;;;12.60;99.90;;;;;;5051073;28;20257;-69
2023/05/18 07:05:24;;;;;;;8.00;3.75;;;12.70;99.90;;;;;;5051894;28;20679;-69
2023/05/18 07:07:51;;;;;;;5.15;3.05;;;12.60;99.90;;;;;;5049111;28;20211;-71
2023/05/18 07:10:21;;;;;;;3.88;2.75;;;12.60;99.90;;;;;;5043941;28;20203;-71
2023/05/18 07:12:48;;;;;;;4.30;3.45;;;12.50;99.90;;;;;;5042283;28;20241;-71
2023/05/18 07:15:15;;;;;;;2.92;2.55;;;12.60;99.90;;;;;;5036754;28;20254;-69
2023/05/18 07:17:43;;;;;;;4.80;3.25;;;12.60;99.90;;;;;;5049402;28;20246;-70
2023/05/18 07:20:11;;;;;;;3.05;2.47;;;12.50;99.90;;;;;;5050814;28;20210;-72
2023/05/18 07:22:37;;;;;;;4.13;2.80;;;12.60;99.90;;;;;;5050046;28;20243;-74
2023/05/18 07:25:05;;;;;;;8.18;3.65;;;12.60;99.90;;;;;;5051356;28;20286;-73
2023/05/18 07:27:33;;;;;;;3.22;2.63;;;12.70;99.90;;;;;;5045863;28;20637;-74
2023/05/18 07:30:00;;;;;;;4.93;4.43;;;12.70;99.90;;;;;;5052263;28;20247;-75
2023/05/18 07:32:27;;;;;;;4.72;3.05;;;12.70;99.90;;;;;;5056839;28;20204;-69
2023/05/18 07:34:54;;;;;;;5.07;2.95;;;12.70;99.90;;;;;;5044000;28;20261;-70
2023/05/18 07:37:21;;;;;;;7.28;2.67;;;12.70;99.90;;;;;;5060399;28;20210;-70
2023/05/18 07:39:48;;;;;;;3.25;2.95;;;12.80;99.90;;;;;;5050379;28;20211;-70
2023/05/18 07:42:15;;;;;;;3.03;2.63;;;12.80;99.90;;;;;;5051296;28;20234;-70
2023/05/18 07:44:43;;;;;;;3.85;3.08;;;12.80;99.90;;;;;;5050496;28;20249;-70
2023/05/18 07:47:11;;;;;;;5.75;2.80;;;12.80;99.90;;;;;;5050813;28;20253;-70
2023/05/18 07:49:38;;;;;;;4.22;2.78;;;12.90;99.90;;;;;;5044618;28;20205;-71
2023/05/18 07:52:07;;;;;;;3.78;2.35;;;13.00;99.90;;;;;;5040463;28;20215;-72
2023/05/18 07:54:34;;;;;;;4.45;3.10;;;13.00;99.90;;;;;;5047522;28;20234;-72
2023/05/18 07:57:00;;;;;;;5.03;3.05;;;13.00;99.90;;;;;;5051046;28;20250;-72
2023/05/18 07:59:27;;;;;;;4.20;3.38;;;13.00;99.90;;;;;;5050576;28;20238;-72
2023/05/18 08:01:57;;;;;;;6.43;3.20;;;13.20;99.90;;;;;;5049120;28;20257;-69
2023/05/18 08:04:24;;;;;;;3.03;2.72;;;13.20;99.90;;;;;;5049639;28;20215;-69
2023/05/18 08:06:53;;;;;;;4.57;2.80;;;13.30;99.90;;;;;;5050657;28;20558;-72
2023/05/18 08:09:20;;;;;;;3.50;2.75;;;13.40;99.90;;;;;;5051293;28;20217;-70
2023/05/18 08:11:49;;;;;;;5.05;2.65;;;13.50;99.90;;;;;;5049543;28;20222;-73
2023/05/18 08:14:16;;;;;;;3.80;2.55;;;13.50;99.90;;;;;;5049784;28;20243;-70
2023/05/18 08:16:43;;;;;;;3.67;3.30;;;13.70;99.90;;;;;;5049932;28;20693;-69
2023/05/18 08:19:12;;;;;;;6.35;3.13;;;13.90;99.90;;;;;;5049888;28;20245;-73
2023/05/18 08:21:38;;;;;;;4.70;2.90;;;13.80;99.90;;;;;;5050485;28;20246;-70
2023/05/18 08:24:07;;;;;;;5.28;2.72;;;14.00;99.90;;;;;;5050102;28;20242;-69
2023/05/18 08:26:34;;;;;;;5.95;3.25;;;14.00;99.90;;;;;;5039428;28;20705;-69
2023/05/18 08:29:08;;;;;;;4.53;2.97;;;14.00;99.90;;;;;;5048337;28;20234;-71
2023/05/18 08:31:35;;;;;;;4.70;3.08;;;14.00;99.90;;;;;;5049821;28;20640;-71
2023/05/18 08:34:02;;;;;;;4.00;2.88;;;14.00;99.90;;;;;;5049815;28;20247;-71
2023/05/18 08:36:32;;;;;;;5.72;3.58;;;14.30;99.90;;;;;;5049667;28;20256;-71
2023/05/18 08:38:58;;;;;;;5.40;3.30;;;14.50;99.90;;;;;;5050479;28;20238;-71
2023/05/18 08:41:30;;;;;;;3.80;2.55;;;14.70;99.90;;;;;;5050023;28;20238;-71
2023/05/18 08:44:03;;;;;;;3.72;2.97;;;14.70;99.90;;;;;;5050576;28;20213;-72
2023/05/18 08:46:34;;;;;;;2.90;2.50;;;14.70;99.90;;;;;;5050016;28;20203;-72
2023/05/18 08:49:01;;;;;;;4.75;3.28;;;14.70;99.90;;;;;;5049422;28;20583;-72
2023/05/18 08:51:34;;;;;;;4.97;3.28;;;14.90;99.90;;;;;;5049404;28;20207;-73
2023/05/18 08:54:04;;;;;;;5.38;2.80;;;14.90;99.90;;;;;;5049572;28;20231;-73
2023/05/18 08:56:33;;;;;;;3.42;2.92;;;15.10;99.90;;;;;;5051851;28;20215;-73
2023/05/18 08:59:03;;;;;;;4.03;3.20;;;15.20;99.90;;;;;;5054601;28;20210;-73
2023/05/18 09:01:31;;;;;;;5.70;2.92;;;15.30;99.90;;;;;;5053829;28;20246;-73
2023/05/18 09:03:59;;;;;;;5.05;3.08;;;15.50;99.90;;;;;;5053026;28;20249;-73
2023/05/18 09:06:27;;;;;;;6.13;3.13;;;15.40;99.90;;;;;;5052316;28;20207;-73
2023/05/18 09:08:57;;;;;;;5.00;3.08;;;15.30;99.90;;;;;;5054178;28;20207;-73
2023/05/18 09:11:27;;;;;;;4.75;3.30;;;15.40;99.90;;;;;;5054213;28;20203;-71
2023/05/18 09:13:54;;;;;;;4.03;3.17;;;15.60;99.90;;;;;;5053837;28;20238;-71
2023/05/18 09:16:21;;;;;;;4.07;3.70;;;16.00;99.90;;;;;;5049385;28;20236;-70
2023/05/18 09:18:48;;;;;;;3.83;3.13;;;16.00;99.90;;;;;;5053859;28;20229;-72
2023/05/18 09:21:15;;;;;;;4.60;3.25;;;16.30;99.90;;;;;;5053970;28;20242;-72
2023/05/18 09:23:43;;;;;;;4.20;2.67;;;16.30;99.90;;;;;;5053418;28;20242;-69
2023/05/18 09:26:12;;;;;;;3.83;2.75;;;16.30;99.90;;;;;;5054070;28;20246;-70
2023/05/18 09:28:41;;;;;;;8.02;3.42;;;16.20;99.90;;;;;;5053085;28;20214;-73
2023/05/18 09:31:11;;;;;;;3.78;2.72;;;16.00;99.90;;;;;;5053784;28;20209;-71
2023/05/18 09:33:40;;;;;;;4.85;2.90;;;16.40;99.90;;;;;;5053204;28;20253;-71
2023/05/18 09:36:08;;;;;;;3.97;2.92;;;16.70;99.90;;;;;;5051757;28;20207;-71
2023/05/18 09:38:37;;;;;;;4.07;3.55;;;16.60;99.90;;;;;;5053754;28;20641;-70
2023/05/18 09:41:09;;;;;;;4.50;2.85;;;16.60;99.90;;;;;;5051238;28;20256;-72
2023/05/18 09:43:37;;;;;;;5.40;3.08;;;16.30;99.90;;;;;;5052990;28;20336;-71
2023/05/18 09:46:06;;;;;;;6.05;3.58;;;15.90;99.90;;;;;;5053522;28;20241;-70
2023/05/18 09:48:35;;;;;;;5.90;3.05;;;15.80;99.90;;;;;;5052975;28;20239;-71
2023/05/18 09:51:02;;;;;;;6.25;3.90;;;15.90;99.90;;;;;;5053391;28;20239;-70
2023/05/18 09:53:29;;;;;;;4.32;3.42;;;16.00;99.90;;;;;;5052695;28;20671;-71
2023/05/18 09:56:01;;;;;;;8.57;4.45;;;16.00;99.90;;;;;;5053504;28;20302;-70
2023/05/18 09:58:31;;;;;;;6.60;4.10;;;15.90;99.90;;;;;;5052674;28;20207;-72
2023/05/18 10:01:01;;;;;;;3.88;3.22;;;16.10;99.90;;;;;;5053613;28;20234;-74
2023/05/18 10:03:34;;;;;;;4.70;3.35;;;16.60;99.90;;;;;;5052344;28;20246;-70
2023/05/18 10:06:04;;;;;;;3.75;3.03;;;16.70;99.90;;;;;;5053144;28;20238;-70
2023/05/18 10:08:31;;;;;;;3.47;3.15;;;16.80;99.90;;;;;;5052367;28;20308;-71
2023/05/18 10:10:58;;;;;;;4.38;2.70;;;17.10;99.90;;;;;;5050837;28;20238;-72
2023/05/18 10:13:27;;;;;;;5.10;3.05;;;17.70;99.90;;;;;;5052711;28;20242;-70
2023/05/18 10:15:55;;;;;;;3.90;2.53;;;18.00;99.90;;;;;;5052747;28;20557;-71
2023/05/18 10:18:25;;;;;;;4.30;3.70;;;17.90;99.90;;;;;;5053397;28;20277;-72
2023/05/18 10:20:54;;;;;;;5.80;3.60;;;17.90;99.90;;;;;;5053402;28;20238;-72
2023/05/18 10:23:23;;;;;;;4.30;3.00;;;18.40;99.90;;;;;;5053149;28;20260;-71
2023/05/18 10:25:51;;;;;;;3.67;2.42;;;18.50;99.90;;;;;;5052956;28;20202;-71
2023/05/18 10:28:24;;;;;;;5.32;3.17;;;18.60;99.90;;;;;;5052344;28;20659;-72
2023/05/18 10:30:54;;;;;;;4.60;3.30;;;18.40;99.90;;;;;;5050867;28;20628;-72
2023/05/18 10:33:24;;;;;;;10.00;3.33;;;18.50;99.90;;;;;;5053053;28;20217;-71
2023/05/18 10:35:51;;;;;;;3.03;2.75;;;18.90;99.90;;;;;;5052798;28;20207;-71
2023/05/18 10:38:20;;;;;;;4.78;2.92;;;18.60;99.90;;;;;;5052756;28;20230;-72
2023/05/18 10:40:50;;;;;;;6.65;3.67;;;18.70;99.90;;;;;;5051830;28;20241;-70
2023/05/18 10:43:20;;;;;;;8.18;3.72;;;18.70;99.90;;;;;;5052601;28;20241;-71
2023/05/18 10:45:53;;;;;;;3.83;2.97;;;18.50;99.90;;;;;;5052019;28;20203;-71
2023/05/18 10:48:21;;;;;;;3.15;2.78;;;18.30;99.90;;;;;;5050548;28;20294;-70
2023/05/18 10:50:50;;;;;;;4.43;3.25;;;18.20;99.90;;;;;;5050068;28;20207;-70
2023/05/18 10:53:19;;;;;;;4.53;3.22;;;18.00;99.90;;;;;;5050861;28;20206;-70
2023/05/18 10:55:47;;;;;;;7.25;3.75;;;17.70;99.90;;;;;;5051826;28;20238;-71
2023/05/18 10:58:17;;;;;;;6.50;3.15;;;17.70;99.90;;;;;;5052322;28;20307;-71
2023/05/18 11:00:48;;;;;;;6.13;3.75;;;17.80;99.90;;;;;;5051835;28;20206;-71
2023/05/18 11:03:16;;;;;;;5.22;3.72;;;17.80;99.90;;;;;;5052001;28;20206;-71
2023/05/18 11:05:44;;;;;;;5.38;3.25;;;17.50;99.90;;;;;;5051708;28;20768;-70
2023/05/18 11:08:13;;;;;;;6.60;3.38;;;17.60;99.90;;;;;;5052115;28;20230;-71
2023/05/18 11:10:42;;;;;;;5.88;2.55;;;17.10;99.90;;;;;;5049013;28;20675;-71
2023/05/18 11:13:11;;;;;;;4.63;3.40;;;17.20;99.90;;;;;;5032063;28;20300;-72
2023/05/18 11:16:10;;;;;;;3.58;2.72;;;17.20;99.90;;;;;;5032318;28;20235;-72
2023/05/18 11:18:45;;;;;;;4.00;2.60;;;17.20;99.90;;;;;;4966822;28;20329;-72
2023/05/18 11:21:51;;;;;;;3.03;2.72;;;17.30;99.90;;;;;;4970666;28;20233;-73
2023/05/18 11:24:22;;;;;;;4.10;2.65;;;17.40;99.90;;;;;;5012238;28;20695;-71
2023/05/18 11:26:51;;;;;;;9.60;3.55;;;17.80;99.90;;;;;;5031612;28;20298;-71
2023/05/18 11:29:23;;;;;;;4.63;2.63;;;17.80;99.90;;;;;;5033967;28;20211;-71
2023/05/18 11:31:52;;;;;;;7.72;3.00;;;17.40;99.90;;;;;;5044830;28;20682;-71
2023/05/18 11:34:44;;;;;;;4.07;2.70;;;17.20;99.90;;;;;;5047314;28;20234;-72
2023/05/18 11:37:13;;;;;;;2.85;2.45;;;16.80;99.90;;;;;;5051321;28;20221;-72
2023/05/18 11:39:42;;;;;;;4.97;2.90;;;16.60;99.90;;;;;;5048162;28;20710;-72
2023/05/18 11:42:13;;;;;;;6.78;4.30;;;16.60;99.90;;;;;;5048092;28;20678;-71
2023/05/18 11:44:40;;;;;;;4.22;3.00;;;16.50;99.90;;;;;;5050998;28;20260;-71
2023/05/18 11:47:09;;;;;;;4.82;2.72;;;16.70;99.90;;;;;;5051369;28;20241;-71
2023/05/18 11:49:42;;;;;;;3.45;2.80;;;16.80;99.90;;;;;;5050722;28;20213;-71
2023/05/18 11:52:15;;;;;;;4.18;2.92;;;16.70;99.90;;;;;;5051173;28;20702;-72
2023/05/18 11:54:46;;;;;;;6.85;2.95;;;16.70;99.90;;;;;;5050356;28;20303;-72
2023/05/18 11:57:15;;;;;;;4.63;4.07;;;16.70;99.90;;;;;;5051173;28;20302;-70
2023/05/18 11:59:43;;;;;;;4.00;3.40;;;16.60;99.90;;;;;;5045697;28;20206;-71
2023/05/18 12:02:12;;;;;;;3.95;3.28;;;16.60;99.90;;;;;;5050187;28;20292;-72
2023/05/18 12:04:45;;;;;;;4.57;3.22;;;16.50;99.90;;;;;;5050309;28;20234;-71
2023/05/18 12:07:12;;;;;;;7.13;4.63;;;16.60;99.90;;;;;;5051111;28;20221;-71
2023/05/18 12:09:45;;;;;;;3.83;2.90;;;16.70;99.90;;;;;;5050498;28;20234;-71
2023/05/18 12:12:16;;;;;;;3.58;2.70;;;16.90;99.90;;;;;;5048835;28;20242;-71
2023/05/18 12:14:43;;;;;;;3.88;2.67;;;16.90;99.90;;;;;;5050448;28;20235;-72
2023/05/18 12:17:11;;;;;;;5.32;4.22;;;16.80;99.90;;;;;;5050862;28;20222;-70
2023/05/18 12:19:45;;;;;;;4.80;3.83;;;17.00;99.90;;;;;;5050588;28;20230;-72
2023/05/18 12:22:12;;;;;;;4.65;2.92;;;17.10;99.90;;;;;;5050715;28;20660;-72
2023/05/18 12:24:39;;;;;;;6.90;3.60;;;17.10;99.90;;;;;;5048607;28;20203;-72
2023/05/18 12:27:09;;;;;;;3.75;2.40;;;17.10;99.90;;;;;;5050355;28;20207;-73
2023/05/18 12:29:39;;;;;;;5.43;3.72;;;17.10;99.90;;;;;;5037450;28;20214;-75
2023/05/18 12:32:09;;;;;;;4.25;3.42;;;17.00;99.90;;;;;;5043919;28;20239;-72
2023/05/18 12:34:37;;;;;;;4.80;2.95;;;16.80;99.90;;;;;;5049627;28;20276;-77
2023/05/18 12:37:04;;;;;;;5.20;2.67;;;16.70;99.90;;;;;;5054624;28;20230;-75
2023/05/18 12:39:31;;;;;;;3.60;2.75;;;16.60;99.90;;;;;;5054367;28;20234;-72
2023/05/18 12:42:13;;;;;;;5.05;3.80;;;16.60;99.90;;;;;;5051081;28;20242;-78
2023/05/18 12:44:42;;;;;;;3.53;2.65;;;16.60;99.90;;;;;;5054237;28;20203;-77
2023/05/18 12:47:10;;;;;;;3.30;2.38;;;16.70;99.90;;;;;;5038893;28;20214;-74
2023/05/18 12:49:38;;;;;;;4.45;2.97;;;16.70;99.90;;;;;;5034090;28;20702;-74
2023/05/18 12:52:10;;;;;;;6.22;2.85;;;16.70;99.90;;;;;;5048009;28;20265;-72
2023/05/18 12:54:49;;;;;;;3.72;2.78;;;16.70;99.90;;;;;;5053448;28;20230;-74